Contact Us:
Email: info@sawbill.com
Phone: (218)663-7150
Fax: (218)663-7980
Mail: 4620 Sawbill Trail
Box 2129
Tofte, MN 55615


Powered by
Movable Type 3.15
 
Sawbill Weather History Archives: May 2011
Current Sawbill Weather History | « April 2011 | June 2011 »


Date

High
Temperature

Low
Temperature

Barometric
Pressure

Relative
Humidity 7AM

9 AM
Temperature

Moisture

Snow

5/31/11 74 45 29.68 68% 45 .05"
5/30/11 58 50 29.59 98% 56 .15"
5/29/11 64 46 29.85 81% 52 .02"
5/28/11 55 43 29.62 98% 46 .71"
5/27/11 58 32 29.50 87% 43 .07"
5/26/11 54 28 29.91 52% 32 0
5/25/11 60 33 29.97 53% 33 0
5/24/11 49 33 29.85 85% 34 0
5/23/11 57 41 29.83 78% 42 Trace
5/22/11 65 55 29.35 95% 55 .07"
5/21/11 65 56 29.59 98% 59 .38"
5/20/11 73 52 29.85 67% 59 0
5/19/11 69 51 30.30 82% 53 0
5/18/11 70 41 29.97 71% 51 0
5/17/11 67 34 29.91 69% 41 0
5/16/11 68 34 30.03 67% 36 0
5/15/11 58 32 30.06 77% 37 0
5/14/11 59 39 30.06 44% 39 0
5/13/11 47 40 30.00 55% 40 .03"
5/12/11 58 43 29.83 73% 43 0
5/11/11 76 48 29.77 83% 48 0
5/10/11 61 46 29.68 98% 49 .18"
5/9/11 58 44 29.71 95% 46 .2"
5/8/11 60 42 29.83 54% 49 Trace
5/7/11 56 37 29.85 82% 42 0
5/6/11 53 32 29.77 88% 37 0
5/5/11 49 39 29.65 95% 41 .17"
5/4/11 60 36 30.03 45% 49 0
5/3/11 52 27 30.18 78% 36 0
5/2/11 42 25 30.03 77% 28 0
5/1/11 35 26 29.88 75% 26 Trace Trace
 


Home I Trip Planning I Rentals and Outfitting I Reservations I Campgrounds I Sawbill Store I Sawbill News I Contact

© 1997 - 2017, Sawbill Canoe Outfitters, Inc. I Privacy Policy